sensor_id;sensor_type;location;lat;lon;timestamp;temperature;humidity
71837;DHT22;59686;51.716;7.016;2022-07-17T00:00:38;24.30;50.00
71837;DHT22;59686;51.716;7.016;2022-07-17T00:03:15;24.30;50.10
71837;DHT22;59686;51.716;7.016;2022-07-17T00:05:42;24.30;50.10
71837;DHT22;59686;51.716;7.016;2022-07-17T00:08:09;24.20;50.10
71837;DHT22;59686;51.716;7.016;2022-07-17T00:10:37;24.20;50.00
71837;DHT22;59686;51.716;7.016;2022-07-17T00:13:04;24.20;50.10
71837;DHT22;59686;51.716;7.016;2022-07-17T00:15:29;24.20;50.00
71837;DHT22;59686;51.716;7.016;2022-07-17T00:17:56;24.10;50.00
71837;DHT22;59686;51.716;7.016;2022-07-17T00:20:22;24.20;50.10
71837;DHT22;59686;51.716;7.016;2022-07-17T00:22:51;24.10;50.10
71837;DHT22;59686;51.716;7.016;2022-07-17T00:25:17;24.10;50.10
71837;DHT22;59686;51.716;7.016;2022-07-17T00:27:42;24.10;50.00
71837;DHT22;59686;51.716;7.016;2022-07-17T00:30:08;24.10;50.10
71837;DHT22;59686;51.716;7.016;2022-07-17T00:32:34;24.10;50.10
71837;DHT22;59686;51.716;7.016;2022-07-17T00:35:00;24.10;50.10
71837;DHT22;59686;51.716;7.016;2022-07-17T00:37:26;24.10;50.10
71837;DHT22;59686;51.716;7.016;2022-07-17T00:39:51;24.10;50.10
71837;DHT22;59686;51.716;7.016;2022-07-17T00:42:17;24.00;50.00
71837;DHT22;59686;51.716;7.016;2022-07-17T00:44:44;24.00;50.00
71837;DHT22;59686;51.716;7.016;2022-07-17T00:47:15;24.00;50.00
71837;DHT22;59686;51.716;7.016;2022-07-17T00:49:42;24.00;50.10
71837;DHT22;59686;51.716;7.016;2022-07-17T00:52:12;24.00;50.10
71837;DHT22;59686;51.716;7.016;2022-07-17T00:54:38;24.00;50.10
71837;DHT22;59686;51.716;7.016;2022-07-17T00:57:10;23.90;50.00
71837;DHT22;59686;51.716;7.016;2022-07-17T00:59:43;23.90;50.00
71837;DHT22;59686;51.716;7.016;2022-07-17T01:02:11;23.90;50.10
71837;DHT22;59686;51.716;7.016;2022-07-17T01:04:38;23.90;50.10
71837;DHT22;59686;51.716;7.016;2022-07-17T01:07:05;23.90;50.10
71837;DHT22;59686;51.716;7.016;2022-07-17T01:09:32;23.90;50.70
71837;DHT22;59686;51.716;7.016;2022-07-17T01:11:58;23.90;50.10
71837;DHT22;59686;51.716;7.016;2022-07-17T01:14:25;23.80;50.10
71837;DHT22;59686;51.716;7.016;2022-07-17T01:16:58;23.80;50.00
71837;DHT22;59686;51.716;7.016;2022-07-17T01:19:25;23.80;50.10
71837;DHT22;59686;51.716;7.016;2022-07-17T01:21:51;23.80;50.10
71837;DHT22;59686;51.716;7.016;2022-07-17T01:24:17;23.80;50.10
71837;DHT22;59686;51.716;7.016;2022-07-17T01:26:45;23.80;50.10
71837;DHT22;59686;51.716;7.016;2022-07-17T01:29:13;23.70;50.00
71837;DHT22;59686;51.716;7.016;2022-07-17T01:31:40;23.70;50.00
71837;DHT22;59686;51.716;7.016;2022-07-17T01:34:06;23.70;50.00
71837;DHT22;59686;51.716;7.016;2022-07-17T01:36:33;23.70;50.00
71837;DHT22;59686;51.716;7.016;2022-07-17T01:38:59;23.70;50.00
71837;DHT22;59686;51.716;7.016;2022-07-17T01:41:25;23.70;50.00
71837;DHT22;59686;51.716;7.016;2022-07-17T01:43:50;23.70;50.00
71837;DHT22;59686;51.716;7.016;2022-07-17T01:46:16;23.60;50.00
71837;DHT22;59686;51.716;7.016;2022-07-17T01:48:42;23.60;50.00
71837;DHT22;59686;51.716;7.016;2022-07-17T01:51:08;23.60;50.00
71837;DHT22;59686;51.716;7.016;2022-07-17T01:53:33;23.60;50.00
71837;DHT22;59686;51.716;7.016;2022-07-17T01:55:59;23.60;50.00
71837;DHT22;59686;51.716;7.016;2022-07-17T01:58:25;23.50;49.90
71837;DHT22;59686;51.716;7.016;2022-07-17T02:00:51;23.50;49.90
71837;DHT22;59686;51.716;7.016;2022-07-17T02:03:17;23.50;49.90
71837;DHT22;59686;51.716;7.016;2022-07-17T02:05:43;23.50;49.90
71837;DHT22;59686;51.716;7.016;2022-07-17T02:08:09;23.50;49.90
71837;DHT22;59686;51.716;7.016;2022-07-17T02:10:35;23.50;49.90
71837;DHT22;59686;51.716;7.016;2022-07-17T02:13:00;23.50;50.00
71837;DHT22;59686;51.716;7.016;2022-07-17T02:15:26;23.50;50.00
71837;DHT22;59686;51.716;7.016;2022-07-17T02:17:52;23.40;50.00
71837;DHT22;59686;51.716;7.016;2022-07-17T02:20:18;23.40;50.00
71837;DHT22;59686;51.716;7.016;2022-07-17T02:22:44;23.40;50.00
71837;DHT22;59686;51.716;7.016;2022-07-17T02:25:11;23.40;50.00
71837;DHT22;59686;51.716;7.016;2022-07-17T02:27:39;23.40;50.00
71837;DHT22;59686;51.716;7.016;2022-07-17T02:30:08;23.40;50.00
71837;DHT22;59686;51.716;7.016;2022-07-17T02:32:34;23.40;50.00
71837;DHT22;59686;51.716;7.016;2022-07-17T02:34:59;23.30;50.00
71837;DHT22;59686;51.716;7.016;2022-07-17T02:37:25;23.30;50.00
71837;DHT22;59686;51.716;7.016;2022-07-17T02:39:51;23.30;50.10
71837;DHT22;59686;51.716;7.016;2022-07-17T02:42:25;23.30;50.10
71837;DHT22;59686;51.716;7.016;2022-07-17T02:44:51;23.20;50.00
71837;DHT22;59686;51.716;7.016;2022-07-17T02:47:26;23.20;50.10
71837;DHT22;59686;51.716;7.016;2022-07-17T02:49:52;23.20;50.10
71837;DHT22;59686;51.716;7.016;2022-07-17T02:52:18;23.20;50.80
71837;DHT22;59686;51.716;7.016;2022-07-17T02:54:44;23.20;50.30
71837;DHT22;59686;51.716;7.016;2022-07-17T02:57:10;23.20;50.20
71837;DHT22;59686;51.716;7.016;2022-07-17T03:02:28;23.10;50.20
71837;DHT22;59686;51.716;7.016;2022-07-17T03:04:54;23.10;50.30
71837;DHT22;59686;51.716;7.016;2022-07-17T03:07:48;23.10;50.30
71837;DHT22;59686;51.716;7.016;2022-07-17T03:10:14;23.10;50.30
71837;DHT22;59686;51.716;7.016;2022-07-17T03:12:41;23.00;50.30
71837;DHT22;59686;51.716;7.016;2022-07-17T03:15:07;23.00;50.30
71837;DHT22;59686;51.716;7.016;2022-07-17T03:17:33;23.00;50.30
71837;DHT22;59686;51.716;7.016;2022-07-17T03:19:59;23.00;50.30
71837;DHT22;59686;51.716;7.016;2022-07-17T03:22:25;23.00;50.30
71837;DHT22;59686;51.716;7.016;2022-07-17T03:24:51;23.00;50.30
71837;DHT22;59686;51.716;7.016;2022-07-17T03:27:17;23.00;50.30
71837;DHT22;59686;51.716;7.016;2022-07-17T03:29:43;23.00;50.30
71837;DHT22;59686;51.716;7.016;2022-07-17T03:32:09;22.90;50.30
71837;DHT22;59686;51.716;7.016;2022-07-17T03:34:36;22.90;50.30
71837;DHT22;59686;51.716;7.016;2022-07-17T03:37:02;22.90;50.20
71837;DHT22;59686;51.716;7.016;2022-07-17T03:39:29;22.90;50.30
71837;DHT22;59686;51.716;7.016;2022-07-17T03:41:55;22.90;50.20
71837;DHT22;59686;51.716;7.016;2022-07-17T03:44:21;22.90;50.30
71837;DHT22;59686;51.716;7.016;2022-07-17T03:46:46;22.90;50.20
71837;DHT22;59686;51.716;7.016;2022-07-17T03:49:12;22.80;50.20
71837;DHT22;59686;51.716;7.016;2022-07-17T03:51:38;22.80;50.20
71837;DHT22;59686;51.716;7.016;2022-07-17T03:54:03;22.80;50.20
71837;DHT22;59686;51.716;7.016;2022-07-17T03:56:29;22.80;50.80
71837;DHT22;59686;51.716;7.016;2022-07-17T03:58:55;22.80;50.20
71837;DHT22;59686;51.716;7.016;2022-07-17T04:01:20;22.70;50.10
71837;DHT22;59686;51.716;7.016;2022-07-17T04:03:46;22.70;50.10
71837;DHT22;59686;51.716;7.016;2022-07-17T04:06:12;22.70;50.10
71837;DHT22;59686;51.716;7.016;2022-07-17T04:08:38;22.70;50.10
71837;DHT22;59686;51.716;7.016;2022-07-17T04:11:04;22.70;50.20
71837;DHT22;59686;51.716;7.016;2022-07-17T04:13:29;22.70;50.20
71837;DHT22;59686;51.716;7.016;2022-07-17T04:15:55;22.70;50.20
71837;DHT22;59686;51.716;7.016;2022-07-17T04:18:27;22.70;50.20
71837;DHT22;59686;51.716;7.016;2022-07-17T04:20:56;22.60;50.20
71837;DHT22;59686;51.716;7.016;2022-07-17T04:23:21;22.60;50.20
71837;DHT22;59686;51.716;7.016;2022-07-17T04:25:47;22.60;50.20
71837;DHT22;59686;51.716;7.016;2022-07-17T04:28:13;22.60;50.30
71837;DHT22;59686;51.716;7.016;2022-07-17T04:30:39;22.60;50.30
71837;DHT22;59686;51.716;7.016;2022-07-17T04:33:05;22.60;50.30
71837;DHT22;59686;51.716;7.016;2022-07-17T04:35:35;22.60;50.40
71837;DHT22;59686;51.716;7.016;2022-07-17T04:38:01;22.50;50.30
71837;DHT22;59686;51.716;7.016;2022-07-17T04:40:28;22.50;50.30
71837;DHT22;59686;51.716;7.016;2022-07-17T04:42:53;22.50;50.30
71837;DHT22;59686;51.716;7.016;2022-07-17T04:45:19;22.50;50.40
71837;DHT22;59686;51.716;7.016;2022-07-17T04:47:45;22.50;50.40
71837;DHT22;59686;51.716;7.016;2022-07-17T04:50:10;22.50;50.40
71837;DHT22;59686;51.716;7.016;2022-07-17T04:52:38;22.50;50.50
71837;DHT22;59686;51.716;7.016;2022-07-17T04:55:04;22.50;50.50
71837;DHT22;59686;51.716;7.016;2022-07-17T04:57:30;22.40;50.50
71837;DHT22;59686;51.716;7.016;2022-07-17T04:59:55;22.40;50.50
71837;DHT22;59686;51.716;7.016;2022-07-17T05:02:21;22.40;50.60
71837;DHT22;59686;51.716;7.016;2022-07-17T05:04:47;22.40;50.50
71837;DHT22;59686;51.716;7.016;2022-07-17T05:07:13;22.40;50.60
71837;DHT22;59686;51.716;7.016;2022-07-17T05:09:41;22.40;50.70
71837;DHT22;59686;51.716;7.016;2022-07-17T05:12:07;22.40;50.70
71837;DHT22;59686;51.716;7.016;2022-07-17T05:14:34;22.30;51.30
71837;DHT22;59686;51.716;7.016;2022-07-17T05:17:00;22.30;50.70
71837;DHT22;59686;51.716;7.016;2022-07-17T05:19:25;22.30;50.70
71837;DHT22;59686;51.716;7.016;2022-07-17T05:21:51;22.30;50.70
71837;DHT22;59686;51.716;7.016;2022-07-17T05:24:17;22.30;50.70
71837;DHT22;59686;51.716;7.016;2022-07-17T05:26:42;22.30;50.80
71837;DHT22;59686;51.716;7.016;2022-07-17T05:29:08;22.30;50.90
71837;DHT22;59686;51.716;7.016;2022-07-17T05:31:34;22.30;50.90
71837;DHT22;59686;51.716;7.016;2022-07-17T05:34:00;22.30;50.90
71837;DHT22;59686;51.716;7.016;2022-07-17T05:36:25;22.30;50.90
71837;DHT22;59686;51.716;7.016;2022-07-17T05:38:51;22.30;50.90
71837;DHT22;59686;51.716;7.016;2022-07-17T05:41:17;22.20;50.80
71837;DHT22;59686;51.716;7.016;2022-07-17T05:43:43;22.20;51.00
71837;DHT22;59686;51.716;7.016;2022-07-17T05:46:08;22.20;51.10
71837;DHT22;59686;51.716;7.016;2022-07-17T05:48:40;22.20;51.10
71837;DHT22;59686;51.716;7.016;2022-07-17T05:51:06;22.20;51.20
71837;DHT22;59686;51.716;7.016;2022-07-17T05:53:32;22.20;51.10
71837;DHT22;59686;51.716;7.016;2022-07-17T05:55:57;22.20;51.10
71837;DHT22;59686;51.716;7.016;2022-07-17T05:58:23;22.20;51.10
71837;DHT22;59686;51.716;7.016;2022-07-17T06:00:48;22.20;51.90
71837;DHT22;59686;51.716;7.016;2022-07-17T06:03:15;22.20;51.30
71837;DHT22;59686;51.716;7.016;2022-07-17T06:05:40;22.20;51.30
71837;DHT22;59686;51.716;7.016;2022-07-17T06:08:06;22.20;51.40
71837;DHT22;59686;51.716;7.016;2022-07-17T06:10:32;22.10;51.30
71837;DHT22;59686;51.716;7.016;2022-07-17T06:12:58;22.10;51.40
71837;DHT22;59686;51.716;7.016;2022-07-17T06:15:24;22.10;51.40
71837;DHT22;59686;51.716;7.016;2022-07-17T06:17:50;22.10;51.50
71837;DHT22;59686;51.716;7.016;2022-07-17T06:20:16;22.10;51.60
71837;DHT22;59686;51.716;7.016;2022-07-17T06:22:43;22.10;51.60
71837;DHT22;59686;51.716;7.016;2022-07-17T06:25:10;22.10;51.70
71837;DHT22;59686;51.716;7.016;2022-07-17T06:27:39;22.10;51.70
71837;DHT22;59686;51.716;7.016;2022-07-17T06:30:05;22.10;51.70
71837;DHT22;59686;51.716;7.016;2022-07-17T06:32:31;22.10;51.80
71837;DHT22;59686;51.716;7.016;2022-07-17T06:35:05;22.10;51.80
71837;DHT22;59686;51.716;7.016;2022-07-17T06:37:30;22.10;51.80
71837;DHT22;59686;51.716;7.016;2022-07-17T06:39:56;22.00;51.80
71837;DHT22;59686;51.716;7.016;2022-07-17T06:42:22;22.00;51.90
71837;DHT22;59686;51.716;7.016;2022-07-17T06:44:47;22.00;52.00
71837;DHT22;59686;51.716;7.016;2022-07-17T06:47:13;22.00;52.00
71837;DHT22;59686;51.716;7.016;2022-07-17T06:49:39;22.00;52.10
71837;DHT22;59686;51.716;7.016;2022-07-17T06:52:05;22.00;52.20
71837;DHT22;59686;51.716;7.016;2022-07-17T06:54:43;22.00;52.20
71837;DHT22;59686;51.716;7.016;2022-07-17T06:57:08;22.00;52.20
71837;DHT22;59686;51.716;7.016;2022-07-17T06:59:34;22.00;52.30
71837;DHT22;59686;51.716;7.016;2022-07-17T07:02:00;22.00;52.40
71837;DHT22;59686;51.716;7.016;2022-07-17T07:04:25;22.00;52.30
71837;DHT22;59686;51.716;7.016;2022-07-17T07:06:51;22.00;52.30
71837;DHT22;59686;51.716;7.016;2022-07-17T07:09:21;22.00;52.30
71837;DHT22;59686;51.716;7.016;2022-07-17T07:11:47;21.90;52.30
71837;DHT22;59686;51.716;7.016;2022-07-17T07:14:22;21.90;52.30
71837;DHT22;59686;51.716;7.016;2022-07-17T07:16:48;21.90;52.30
71837;DHT22;59686;51.716;7.016;2022-07-17T07:19:25;21.90;52.40
71837;DHT22;59686;51.716;7.016;2022-07-17T07:21:51;21.90;52.40
71837;DHT22;59686;51.716;7.016;2022-07-17T07:24:25;21.90;52.40
71837;DHT22;59686;51.716;7.016;2022-07-17T07:26:53;21.90;52.40
71837;DHT22;59686;51.716;7.016;2022-07-17T07:29:39;21.90;52.40
71837;DHT22;59686;51.716;7.016;2022-07-17T07:32:05;21.90;52.40
71837;DHT22;59686;51.716;7.016;2022-07-17T07:34:31;21.90;52.40
71837;DHT22;59686;51.716;7.016;2022-07-17T07:36:56;21.90;52.50
71837;DHT22;59686;51.716;7.016;2022-07-17T07:39:22;21.90;52.50
71837;DHT22;59686;51.716;7.016;2022-07-17T07:41:48;21.90;52.40
71837;DHT22;59686;51.716;7.016;2022-07-17T07:44:13;21.90;52.50
71837;DHT22;59686;51.716;7.016;2022-07-17T07:46:39;21.90;52.50
71837;DHT22;59686;51.716;7.016;2022-07-17T07:49:05;21.90;52.50
71837;DHT22;59686;51.716;7.016;2022-07-17T07:51:30;21.80;52.30
71837;DHT22;59686;51.716;7.016;2022-07-17T07:53:56;21.70;51.90
71837;DHT22;59686;51.716;7.016;2022-07-17T07:56:22;21.50;51.70
71837;DHT22;59686;51.716;7.016;2022-07-17T07:58:47;21.30;51.70
71837;DHT22;59686;51.716;7.016;2022-07-17T08:01:13;21.10;52.30
71837;DHT22;59686;51.716;7.016;2022-07-17T08:04:13;21.20;52.20
71837;DHT22;59686;51.716;7.016;2022-07-17T08:06:38;21.40;52.10
71837;DHT22;59686;51.716;7.016;2022-07-17T08:09:04;21.50;52.00
71837;DHT22;59686;51.716;7.016;2022-07-17T08:11:30;21.50;51.90
71837;DHT22;59686;51.716;7.016;2022-07-17T08:13:56;21.50;51.90
71837;DHT22;59686;51.716;7.016;2022-07-17T08:16:21;21.60;51.90
71837;DHT22;59686;51.716;7.016;2022-07-17T08:18:47;21.60;51.90
71837;DHT22;59686;51.716;7.016;2022-07-17T08:21:13;21.60;51.90
71837;DHT22;59686;51.716;7.016;2022-07-17T08:23:38;21.60;51.90
71837;DHT22;59686;51.716;7.016;2022-07-17T08:26:04;21.60;51.90
71837;DHT22;59686;51.716;7.016;2022-07-17T08:28:30;21.70;52.00
71837;DHT22;59686;51.716;7.016;2022-07-17T08:30:56;21.70;52.00
71837;DHT22;59686;51.716;7.016;2022-07-17T08:33:21;21.70;52.00
71837;DHT22;59686;51.716;7.016;2022-07-17T08:35:48;21.70;52.00
71837;DHT22;59686;51.716;7.016;2022-07-17T08:38:14;21.70;52.10
71837;DHT22;59686;51.716;7.016;2022-07-17T08:40:39;21.70;52.10
71837;DHT22;59686;51.716;7.016;2022-07-17T08:43:07;21.70;52.10
71837;DHT22;59686;51.716;7.016;2022-07-17T08:45:33;21.70;52.70
71837;DHT22;59686;51.716;7.016;2022-07-17T08:47:59;21.60;52.00
71837;DHT22;59686;51.716;7.016;2022-07-17T08:50:35;21.60;52.00
71837;DHT22;59686;51.716;7.016;2022-07-17T08:53:02;21.70;52.60
71837;DHT22;59686;51.716;7.016;2022-07-17T08:55:28;21.60;51.90
71837;DHT22;59686;51.716;7.016;2022-07-17T08:57:54;21.60;52.00
71837;DHT22;59686;51.716;7.016;2022-07-17T09:00:22;21.60;52.00
71837;DHT22;59686;51.716;7.016;2022-07-17T09:05:31;21.60;52.00
71837;DHT22;59686;51.716;7.016;2022-07-17T09:07:58;21.60;52.00
71837;DHT22;59686;51.716;7.016;2022-07-17T09:10:42;21.60;52.10
71837;DHT22;59686;51.716;7.016;2022-07-17T09:13:19;21.50;51.80
71837;DHT22;59686;51.716;7.016;2022-07-17T09:15:48;21.50;51.80
71837;DHT22;59686;51.716;7.016;2022-07-17T09:18:14;21.40;51.20
71837;DHT22;59686;51.716;7.016;2022-07-17T09:21:02;21.30;51.40
71837;DHT22;59686;51.716;7.016;2022-07-17T09:23:30;21.20;51.40
71837;DHT22;59686;51.716;7.016;2022-07-17T09:25:56;21.30;51.40
71837;DHT22;59686;51.716;7.016;2022-07-17T09:28:23;21.30;51.30
71837;DHT22;59686;51.716;7.016;2022-07-17T09:30:51;21.30;52.10
71837;DHT22;59686;51.716;7.016;2022-07-17T09:33:19;21.40;51.30
71837;DHT22;59686;51.716;7.016;2022-07-17T09:35:54;21.30;51.30
71837;DHT22;59686;51.716;7.016;2022-07-17T09:38:34;21.30;51.40
71837;DHT22;59686;51.716;7.016;2022-07-17T09:41:08;21.30;51.20
71837;DHT22;59686;51.716;7.016;2022-07-17T09:46:21;21.30;51.10
71837;DHT22;59686;51.716;7.016;2022-07-17T09:48:50;21.40;50.80
71837;DHT22;59686;51.716;7.016;2022-07-17T09:51:33;21.50;50.50
71837;DHT22;59686;51.716;7.016;2022-07-17T09:54:02;21.60;51.30
71837;DHT22;59686;51.716;7.016;2022-07-17T09:56:34;21.60;50.30
71837;DHT22;59686;51.716;7.016;2022-07-17T09:59:03;21.60;50.40
71837;DHT22;59686;51.716;7.016;2022-07-17T10:01:30;21.60;50.10
71837;DHT22;59686;51.716;7.016;2022-07-17T10:03:56;21.60;50.80
71837;DHT22;59686;51.716;7.016;2022-07-17T10:06:23;21.60;50.00
71837;DHT22;59686;51.716;7.016;2022-07-17T10:08:50;21.70;50.00
71837;DHT22;59686;51.716;7.016;2022-07-17T10:11:19;21.70;49.70
71837;DHT22;59686;51.716;7.016;2022-07-17T10:13:46;21.60;49.40
71837;DHT22;59686;51.716;7.016;2022-07-17T10:16:13;21.60;49.30
71837;DHT22;59686;51.716;7.016;2022-07-17T10:18:40;21.60;48.30
71837;DHT22;59686;51.716;7.016;2022-07-17T10:21:17;21.60;47.80
71837;DHT22;59686;51.716;7.016;2022-07-17T10:26:41;21.50;47.00
71837;DHT22;59686;51.716;7.016;2022-07-17T10:29:36;21.50;47.30
71837;DHT22;59686;51.716;7.016;2022-07-17T10:32:07;21.60;47.00
71837;DHT22;59686;51.716;7.016;2022-07-17T10:34:42;21.60;46.90
71837;DHT22;59686;51.716;7.016;2022-07-17T10:37:26;21.60;46.90
71837;DHT22;59686;51.716;7.016;2022-07-17T10:39:57;21.70;46.80
71837;DHT22;59686;51.716;7.016;2022-07-17T10:48:21;21.70;46.70
71837;DHT22;59686;51.716;7.016;2022-07-17T10:50:56;21.70;46.80
71837;DHT22;59686;51.716;7.016;2022-07-17T10:53:28;21.70;46.40
71837;DHT22;59686;51.716;7.016;2022-07-17T10:55:59;21.70;46.40
71837;DHT22;59686;51.716;7.016;2022-07-17T10:58:38;21.70;46.50
71837;DHT22;59686;51.716;7.016;2022-07-17T11:03:37;21.80;46.90
71837;DHT22;59686;51.716;7.016;2022-07-17T11:08:55;21.90;46.90
71837;DHT22;59686;51.716;7.016;2022-07-17T11:11:36;21.90;46.70
71837;DHT22;59686;51.716;7.016;2022-07-17T11:14:17;22.00;47.30
71837;DHT22;59686;51.716;7.016;2022-07-17T11:16:52;22.00;46.90
71837;DHT22;59686;51.716;7.016;2022-07-17T11:24:58;22.10;46.80
71837;DHT22;59686;51.716;7.016;2022-07-17T11:27:29;22.20;47.30
71837;DHT22;59686;51.716;7.016;2022-07-17T11:29:57;22.20;46.50
71837;DHT22;59686;51.716;7.016;2022-07-17T11:32:23;22.20;46.00
71837;DHT22;59686;51.716;7.016;2022-07-17T11:34:50;22.20;45.80
71837;DHT22;59686;51.716;7.016;2022-07-17T11:37:16;22.20;45.20
71837;DHT22;59686;51.716;7.016;2022-07-17T11:39:47;22.20;44.80
71837;DHT22;59686;51.716;7.016;2022-07-17T11:42:15;22.20;45.10
71837;DHT22;59686;51.716;7.016;2022-07-17T11:44:41;22.20;45.00
71837;DHT22;59686;51.716;7.016;2022-07-17T11:47:09;22.20;44.60
71837;DHT22;59686;51.716;7.016;2022-07-17T11:52:50;22.30;45.10
71837;DHT22;59686;51.716;7.016;2022-07-17T11:55:16;22.30;44.80
71837;DHT22;59686;51.716;7.016;2022-07-17T11:57:50;22.30;44.50
71837;DHT22;59686;51.716;7.016;2022-07-17T12:00:18;22.30;44.70
71837;DHT22;59686;51.716;7.016;2022-07-17T12:02:44;22.40;44.70
71837;DHT22;59686;51.716;7.016;2022-07-17T12:05:11;22.40;44.90
71837;DHT22;59686;51.716;7.016;2022-07-17T12:07:46;22.40;44.80
71837;DHT22;59686;51.716;7.016;2022-07-17T12:10:21;22.50;44.90
71837;DHT22;59686;51.716;7.016;2022-07-17T12:13:06;22.50;45.10
71837;DHT22;59686;51.716;7.016;2022-07-17T12:18:07;22.50;45.20
71837;DHT22;59686;51.716;7.016;2022-07-17T12:20:48;22.60;44.80
71837;DHT22;59686;51.716;7.016;2022-07-17T12:23:42;22.60;44.90
71837;DHT22;59686;51.716;7.016;2022-07-17T12:26:12;22.60;44.60
71837;DHT22;59686;51.716;7.016;2022-07-17T12:28:41;22.60;45.10
71837;DHT22;59686;51.716;7.016;2022-07-17T12:31:11;22.70;45.10
71837;DHT22;59686;51.716;7.016;2022-07-17T12:33:37;22.70;44.70
71837;DHT22;59686;51.716;7.016;2022-07-17T12:36:03;22.70;44.60
71837;DHT22;59686;51.716;7.016;2022-07-17T12:38:29;22.80;44.30
71837;DHT22;59686;51.716;7.016;2022-07-17T12:40:55;22.90;44.30
71837;DHT22;59686;51.716;7.016;2022-07-17T12:43:21;22.90;44.50
71837;DHT22;59686;51.716;7.016;2022-07-17T12:45:47;22.90;43.90
71837;DHT22;59686;51.716;7.016;2022-07-17T12:48:13;22.90;43.20
71837;DHT22;59686;51.716;7.016;2022-07-17T12:50:39;22.90;43.00
71837;DHT22;59686;51.716;7.016;2022-07-17T12:53:05;23.00;42.60
71837;DHT22;59686;51.716;7.016;2022-07-17T12:55:32;23.00;42.50
71837;DHT22;59686;51.716;7.016;2022-07-17T12:57:58;23.00;42.70
71837;DHT22;59686;51.716;7.016;2022-07-17T13:00:25;23.10;42.70
71837;DHT22;59686;51.716;7.016;2022-07-17T13:02:50;23.10;42.80
71837;DHT22;59686;51.716;7.016;2022-07-17T13:05:16;23.20;43.00
71837;DHT22;59686;51.716;7.016;2022-07-17T13:07:42;23.30;42.80
71837;DHT22;59686;51.716;7.016;2022-07-17T13:10:08;23.30;42.00
71837;DHT22;59686;51.716;7.016;2022-07-17T13:12:35;23.40;41.70
71837;DHT22;59686;51.716;7.016;2022-07-17T13:15:01;23.40;41.70
71837;DHT22;59686;51.716;7.016;2022-07-17T13:17:28;23.40;42.10
71837;DHT22;59686;51.716;7.016;2022-07-17T13:20:06;23.40;42.20
71837;DHT22;59686;51.716;7.016;2022-07-17T13:22:32;23.40;42.30
71837;DHT22;59686;51.716;7.016;2022-07-17T13:24:58;23.50;43.00
71837;DHT22;59686;51.716;7.016;2022-07-17T13:27:27;23.50;42.90
71837;DHT22;59686;51.716;7.016;2022-07-17T13:29:52;23.50;42.70
71837;DHT22;59686;51.716;7.016;2022-07-17T13:32:18;23.50;42.60
71837;DHT22;59686;51.716;7.016;2022-07-17T13:34:44;23.50;42.30
71837;DHT22;59686;51.716;7.016;2022-07-17T13:37:09;23.60;42.30
71837;DHT22;59686;51.716;7.016;2022-07-17T13:39:35;23.60;41.90
71837;DHT22;59686;51.716;7.016;2022-07-17T13:42:02;23.70;42.50
71837;DHT22;59686;51.716;7.016;2022-07-17T13:44:31;23.70;42.20
71837;DHT22;59686;51.716;7.016;2022-07-17T13:46:57;23.70;42.00
71837;DHT22;59686;51.716;7.016;2022-07-17T13:49:23;23.70;41.60
71837;DHT22;59686;51.716;7.016;2022-07-17T13:51:48;23.70;41.00
71837;DHT22;59686;51.716;7.016;2022-07-17T13:54:14;23.70;41.00
71837;DHT22;59686;51.716;7.016;2022-07-17T13:56:45;23.80;41.00
71837;DHT22;59686;51.716;7.016;2022-07-17T13:59:11;23.80;41.00
71837;DHT22;59686;51.716;7.016;2022-07-17T14:01:36;23.90;41.00
71837;DHT22;59686;51.716;7.016;2022-07-17T14:04:02;23.90;40.70
71837;DHT22;59686;51.716;7.016;2022-07-17T14:06:28;23.90;40.20
71837;DHT22;59686;51.716;7.016;2022-07-17T14:08:54;24.00;40.30
71837;DHT22;59686;51.716;7.016;2022-07-17T14:11:20;24.10;40.30
71837;DHT22;59686;51.716;7.016;2022-07-17T14:13:45;24.10;40.40
71837;DHT22;59686;51.716;7.016;2022-07-17T14:16:11;24.10;40.30
71837;DHT22;59686;51.716;7.016;2022-07-17T14:18:37;24.10;40.00
71837;DHT22;59686;51.716;7.016;2022-07-17T14:21:22;24.10;39.90
71837;DHT22;59686;51.716;7.016;2022-07-17T14:23:48;24.10;39.80
71837;DHT22;59686;51.716;7.016;2022-07-17T14:26:14;24.10;40.00
71837;DHT22;59686;51.716;7.016;2022-07-17T14:28:40;24.10;39.90
71837;DHT22;59686;51.716;7.016;2022-07-17T14:31:05;24.10;39.70
71837;DHT22;59686;51.716;7.016;2022-07-17T14:33:31;24.20;39.70
71837;DHT22;59686;51.716;7.016;2022-07-17T14:35:57;24.30;40.00
71837;DHT22;59686;51.716;7.016;2022-07-17T14:38:22;24.30;39.60
71837;DHT22;59686;51.716;7.016;2022-07-17T14:40:48;24.40;40.00
71837;DHT22;59686;51.716;7.016;2022-07-17T14:43:14;24.40;39.90
71837;DHT22;59686;51.716;7.016;2022-07-17T14:45:39;24.40;39.80
71837;DHT22;59686;51.716;7.016;2022-07-17T14:48:05;24.50;39.70
71837;DHT22;59686;51.716;7.016;2022-07-17T14:50:32;24.50;40.10
71837;DHT22;59686;51.716;7.016;2022-07-17T14:53:04;24.50;39.40
71837;DHT22;59686;51.716;7.016;2022-07-17T14:55:30;24.60;39.30
71837;DHT22;59686;51.716;7.016;2022-07-17T14:57:57;24.70;39.30
71837;DHT22;59686;51.716;7.016;2022-07-17T15:00:24;24.60;39.60
71837;DHT22;59686;51.716;7.016;2022-07-17T15:02:50;24.70;39.70
71837;DHT22;59686;51.716;7.016;2022-07-17T15:05:15;24.70;39.30
71837;DHT22;59686;51.716;7.016;2022-07-17T15:07:46;24.70;39.30
71837;DHT22;59686;51.716;7.016;2022-07-17T15:10:11;24.70;38.90
71837;DHT22;59686;51.716;7.016;2022-07-17T15:12:37;24.80;39.00
71837;DHT22;59686;51.716;7.016;2022-07-17T15:15:03;24.80;38.50
71837;DHT22;59686;51.716;7.016;2022-07-17T15:17:28;24.80;38.10
71837;DHT22;59686;51.716;7.016;2022-07-17T15:19:58;24.80;37.90
71837;DHT22;59686;51.716;7.016;2022-07-17T15:22:24;24.90;37.90
71837;DHT22;59686;51.716;7.016;2022-07-17T15:24:50;25.00;37.40
71837;DHT22;59686;51.716;7.016;2022-07-17T15:27:15;25.10;37.70
71837;DHT22;59686;51.716;7.016;2022-07-17T15:29:41;25.20;37.80
71837;DHT22;59686;51.716;7.016;2022-07-17T15:32:13;25.30;37.30
71837;DHT22;59686;51.716;7.016;2022-07-17T15:34:38;25.40;37.10
71837;DHT22;59686;51.716;7.016;2022-07-17T15:37:04;25.40;37.20
71837;DHT22;59686;51.716;7.016;2022-07-17T15:39:30;25.50;36.50
71837;DHT22;59686;51.716;7.016;2022-07-17T15:41:56;25.60;36.70
71837;DHT22;59686;51.716;7.016;2022-07-17T15:44:22;25.50;36.80
71837;DHT22;59686;51.716;7.016;2022-07-17T15:46:48;25.50;37.00
71837;DHT22;59686;51.716;7.016;2022-07-17T15:49:13;25.40;37.00
71837;DHT22;59686;51.716;7.016;2022-07-17T15:51:39;25.50;36.50
71837;DHT22;59686;51.716;7.016;2022-07-17T15:54:05;25.50;35.90
71837;DHT22;59686;51.716;7.016;2022-07-17T15:56:33;25.50;35.40
71837;DHT22;59686;51.716;7.016;2022-07-17T15:58:59;25.60;35.00
71837;DHT22;59686;51.716;7.016;2022-07-17T16:01:25;25.60;34.90
71837;DHT22;59686;51.716;7.016;2022-07-17T16:03:51;25.60;35.00
71837;DHT22;59686;51.716;7.016;2022-07-17T16:06:20;25.70;34.90